KCSV/CSV METAR and TAF weather

Enter ICAO airport designator
Station Type Date Time Source
KCSV METAR 2021/03/06 03:53 UTC NOAA

KCSV 060353Z AUTO 04009KT 10SM CLR 02/M08 A3020 RMK AO2 SLP234 T00221083


Station Type Date Time Source
KCSV Decoded METAR 2021/03/06 03:53 UTC NOAA

CROSSVILLE MEMORIAL AIRPORT , TN, United States (KCSV) 35-57N 85-05W 570M
Mar 05, 2021 - 10:53 PM EST / 2021.03.06 0353 UTC
Wind: from the NE (040 degrees) at 10 MPH (9 KT):0
Visibility: 10 mile(s):0
Sky conditions: clear
Temperature: 36.0 F (2.2 C)
Dew Point: 17.1 F (-8.3 C)
Relative Humidity: 45%
Pressure (altimeter): 30.2 in. Hg (1022 hPa)
ob: KCSV 060353Z AUTO 04009KT 10SM CLR 02/M08 A3020 RMK AO2 SLP234 T00221083
cycle: 4

Station Type Date Time Source
KCSV TAF 2021/03/05 18:27 UTC NOAA

TAF KCSV 051724Z 0518/0618 04010KT P6SM SKC
FM052100 03010KT P6SM BKN200

Example: see airport list